createdAt,value
2017-11-06T00:00:05.118Z,49.4
2017-11-06T00:01:05.923Z,47.1
2017-11-06T00:02:06.709Z,45.1
2017-11-06T00:03:07.437Z,46.1
2017-11-06T00:04:08.249Z,48.2
2017-11-06T00:05:09.043Z,49.3
2017-11-06T00:06:09.770Z,48.2
2017-11-06T00:07:10.496Z,49.5
2017-11-06T00:08:11.284Z,48.9
2017-11-06T00:09:12.005Z,48.4
2017-11-06T00:10:12.801Z,50.4
2017-11-06T00:11:13.577Z,48.7
2017-11-06T00:12:14.388Z,52.4
2017-11-06T00:13:15.193Z,50.9
2017-11-06T00:14:15.925Z,51.8
2017-11-06T00:15:16.720Z,49.4
2017-11-06T00:16:17.610Z,51.5
2017-11-06T00:17:18.397Z,52.2
2017-11-06T00:18:19.122Z,53.6
2017-11-06T00:19:19.858Z,54.1
2017-11-06T00:20:20.583Z,55.0
2017-11-06T00:21:21.782Z,53.9
2017-11-06T00:22:22.504Z,52.7
2017-11-06T00:23:23.296Z,54.3
2017-11-06T00:24:24.046Z,57.3
2017-11-06T00:25:24.824Z,56.2
2017-11-06T00:26:25.701Z,59.0
2017-11-06T00:27:26.532Z,56.6
2017-11-06T00:28:27.326Z,57.6
2017-11-06T00:29:28.105Z,61.8
2017-11-06T00:30:28.824Z,57.3
2017-11-06T00:31:29.627Z,60.8
2017-11-06T00:32:30.469Z,53.5
2017-11-06T00:33:31.210Z,55.1
2017-11-06T00:34:31.981Z,53.0
2017-11-06T00:35:32.810Z,55.6
2017-11-06T00:36:33.603Z,57.3
2017-11-06T00:37:34.398Z,65.2
2017-11-06T00:38:35.224Z,60.4
2017-11-06T00:39:36.013Z,61.0
2017-11-06T00:40:36.802Z,51.2
2017-11-06T00:41:37.537Z,59.2
2017-11-06T00:42:38.361Z,58.5
2017-11-06T00:43:39.062Z,59.6
2017-11-06T00:44:39.787Z,58.3
2017-11-06T00:45:40.588Z,54.6
2017-11-06T00:46:41.382Z,56.3
2017-11-06T00:47:42.170Z,60.2
2017-11-06T00:48:42.958Z,58.1
2017-11-06T00:49:43.694Z,61.8
2017-11-06T00:50:44.404Z,65.9
2017-11-06T00:51:45.132Z,65.4
2017-11-06T00:52:45.863Z,72.2
2017-11-06T00:53:46.705Z,68.0
2017-11-06T00:54:47.441Z,57.6
2017-11-06T00:55:48.175Z,63.7
2017-11-06T00:56:48.942Z,60.3
2017-11-06T00:57:49.672Z,58.7
2017-11-06T00:58:50.493Z,62.9
2017-11-06T00:59:51.353Z,64.6
2017-11-06T01:00:52.132Z,73.8
2017-11-06T01:01:52.862Z,71.3
2017-11-06T01:02:53.582Z,68.6
2017-11-06T01:03:54.603Z,65.9
2017-11-06T01:04:55.349Z,68.7
2017-11-06T01:05:56.116Z,68.3
2017-11-06T01:06:56.842Z,75.6
2017-11-06T01:07:57.643Z,71.5
2017-11-06T01:08:58.477Z,73.2
2017-11-06T01:09:59.252Z,75.4
2017-11-06T01:10:59.975Z,70.9
2017-11-06T01:12:00.773Z,71.1
2017-11-06T01:13:01.572Z,66.3
2017-11-06T01:14:02.693Z,70.3
2017-11-06T01:15:03.432Z,74.7
2017-11-06T01:16:04.236Z,71.8
2017-11-06T01:17:04.976Z,70.8
2017-11-06T01:18:05.732Z,77.8
2017-11-06T01:19:06.512Z,81.9
2017-11-06T01:20:07.313Z,78.8
2017-11-06T01:21:08.109Z,70.3
2017-11-06T01:22:08.833Z,68.5
2017-11-06T01:23:09.563Z,74.7
2017-11-06T01:24:10.402Z,70.8
2017-11-06T01:25:11.132Z,73.3
2017-11-06T01:26:11.853Z,71.3
2017-11-06T01:27:12.573Z,84.0
2017-11-06T01:28:13.372Z,87.1
2017-11-06T01:29:14.193Z,71.2
2017-11-06T01:30:14.916Z,72.5
2017-11-06T01:31:15.636Z,69.2
2017-11-06T01:32:16.402Z,69.5
2017-11-06T01:33:17.143Z,71.9
2017-11-06T01:34:17.927Z,70.1
2017-11-06T01:35:18.721Z,70.5
2017-11-06T01:36:19.514Z,80.7
2017-11-06T01:37:20.312Z,118.0
2017-11-06T01:38:21.038Z,94.2
2017-11-06T01:39:21.902Z,82.6
2017-11-06T01:40:22.626Z,78.0
2017-11-06T01:41:23.354Z,79.1
2017-11-06T01:42:24.084Z,75.6
2017-11-06T01:43:24.786Z,78.1
2017-11-06T01:44:25.914Z,80.9
2017-11-06T01:45:26.713Z,78.3
2017-11-06T01:46:27.529Z,80.3
2017-11-06T01:47:28.295Z,86.6
2017-11-06T01:48:29.056Z,83.2
2017-11-06T01:49:29.887Z,80.0
2017-11-06T01:50:30.662Z,79.4
2017-11-06T01:51:31.386Z,76.4
2017-11-06T01:52:32.111Z,74.4
2017-11-06T01:53:32.917Z,80.2
2017-11-06T01:54:33.782Z,73.8
2017-11-06T01:55:34.524Z,83.2
2017-11-06T01:56:35.282Z,78.7
2017-11-06T01:57:36.003Z,81.7
2017-11-06T01:58:36.713Z,89.7
2017-11-06T01:59:37.542Z,96.2
2017-11-06T02:00:38.262Z,81.6
2017-11-06T02:01:38.974Z,77.7
2017-11-06T02:02:39.721Z,88.0
2017-11-06T02:03:40.482Z,86.9
2017-11-06T02:04:41.267Z,82.9
2017-11-06T02:05:42.031Z,80.4
2017-11-06T02:06:42.754Z,80.5
2017-11-06T02:07:43.482Z,87.0
2017-11-06T02:08:44.204Z,80.1
2017-11-06T02:09:45.051Z,82.8
2017-11-06T02:10:45.776Z,87.9
2017-11-06T02:11:46.498Z,88.8
2017-11-06T02:12:47.227Z,92.3
2017-11-06T02:13:47.940Z,95.3
2017-11-06T02:14:48.826Z,83.1
2017-11-06T02:15:49.542Z,82.1
2017-11-06T02:16:50.267Z,83.4
2017-11-06T02:17:51.062Z,94.2
2017-11-06T02:18:51.781Z,84.1
2017-11-06T02:19:52.502Z,85.0
2017-11-06T02:20:53.225Z,85.0
2017-11-06T02:21:54.023Z,85.7
2017-11-06T02:22:54.743Z,87.1
2017-11-06T02:23:55.471Z,91.0
2017-11-06T02:24:56.355Z,90.5
2017-11-06T02:25:57.078Z,90.5
2017-11-06T02:26:57.868Z,95.9
2017-11-06T02:27:58.602Z,89.1
2017-11-06T02:28:59.322Z,99.1
2017-11-06T02:30:01.108Z,95.3
2017-11-06T02:31:01.782Z,104.4
2017-11-06T02:32:02.502Z,100.8
2017-11-06T02:33:03.225Z,85.3
2017-11-06T02:34:03.948Z,93.4
2017-11-06T02:35:05.107Z,92.5
2017-11-06T02:36:05.895Z,96.0
2017-11-06T02:37:06.676Z,92.3
2017-11-06T02:38:07.456Z,90.9
2017-11-06T02:39:08.176Z,85.9
2017-11-06T02:40:09.252Z,86.0
2017-11-06T02:41:09.978Z,86.2
2017-11-06T02:42:10.706Z,90.3
2017-11-06T02:43:11.418Z,91.3
2017-11-06T02:44:12.126Z,90.0
2017-11-06T02:45:13.312Z,97.6
2017-11-06T02:46:14.042Z,97.0
2017-11-06T02:47:14.769Z,106.6
2017-11-06T02:48:15.544Z,104.3
2017-11-06T02:49:16.272Z,97.9
2017-11-06T02:50:17.311Z,97.7
2017-11-06T02:51:18.113Z,102.0
2017-11-06T02:52:18.832Z,91.4
2017-11-06T02:53:19.552Z,100.4
2017-11-06T02:54:20.292Z,101.3
2017-11-06T02:55:21.162Z,97.4
2017-11-06T02:56:21.966Z,99.0
2017-11-06T02:57:22.693Z,107.9
2017-11-06T02:58:23.423Z,101.3
2017-11-06T02:59:24.159Z,97.4
2017-11-06T03:00:25.017Z,103.8
2017-11-06T03:01:25.743Z,104.0
2017-11-06T03:02:26.470Z,93.6
2017-11-06T03:03:27.200Z,95.7
2017-11-06T03:04:28.003Z,101.6
2017-11-06T03:05:28.842Z,92.6
2017-11-06T03:06:29.567Z,86.6
2017-11-06T03:07:30.283Z,92.3
2017-11-06T03:08:31.024Z,93.9
2017-11-06T03:09:31.812Z,89.7
2017-11-06T03:10:32.547Z,88.7
2017-11-06T03:11:33.433Z,98.2
2017-11-06T03:12:34.153Z,102.3
2017-11-06T03:13:34.882Z,100.9
2017-11-06T03:14:35.602Z,101.0
2017-11-06T03:15:36.341Z,101.0
2017-11-06T03:16:37.062Z,93.5
2017-11-06T03:17:37.792Z,102.2
2017-11-06T03:18:38.572Z,99.3
2017-11-06T03:19:39.297Z,102.1
2017-11-06T03:20:40.042Z,110.5
2017-11-06T03:21:40.769Z,99.2
2017-11-06T03:22:41.492Z,96.5
2017-11-06T03:23:42.224Z,87.1
2017-11-06T03:24:42.942Z,91.1
2017-11-06T03:25:43.667Z,104.7
2017-11-06T03:26:44.498Z,99.4
2017-11-06T03:27:45.262Z,97.4
2017-11-06T03:28:45.982Z,94.8
2017-11-06T03:29:46.714Z,98.7
2017-11-06T03:30:47.452Z,93.9
2017-11-06T03:31:48.234Z,130.4
2017-11-06T03:32:49.022Z,141.6
2017-11-06T03:33:49.742Z,104.9
2017-11-06T03:34:50.472Z,91.3
2017-11-06T03:35:51.195Z,97.3
2017-11-06T03:36:52.043Z,96.6
2017-11-06T03:37:52.777Z,102.4
2017-11-06T03:38:53.572Z,99.2
2017-11-06T03:39:54.303Z,105.7
2017-11-06T03:42:09.472Z,104.6
2017-11-06T03:43:10.203Z,108.0
2017-11-06T03:44:10.941Z,102.9
2017-11-06T03:45:11.750Z,114.8
2017-11-06T03:46:12.464Z,115.6
2017-11-06T03:47:13.323Z,104.8
2017-11-06T03:48:14.044Z,97.1
2017-11-06T03:49:14.852Z,93.9
2017-11-06T03:50:15.584Z,91.3
2017-11-06T03:51:16.317Z,138.4
2017-11-06T03:52:17.382Z,125.3
2017-11-06T03:53:18.113Z,109.1
2017-11-06T03:54:18.840Z,100.6
2017-11-06T03:55:19.567Z,101.7
2017-11-06T03:56:20.338Z,96.2
2017-11-06T03:57:21.075Z,96.9
2017-11-06T03:58:21.883Z,106.9
2017-11-06T03:59:22.651Z,94.1
2017-11-06T04:00:23.382Z,91.1
2017-11-06T04:01:24.101Z,98.3
2017-11-06T04:02:24.881Z,94.5
2017-11-06T04:03:25.636Z,98.9
2017-11-06T04:04:26.402Z,95.5
2017-11-06T04:05:27.133Z,94.2
2017-11-06T04:06:27.927Z,95.5
2017-11-06T04:07:28.956Z,105.1
2017-11-06T04:08:29.692Z,99.7
2017-11-06T04:09:30.480Z,100.9
2017-11-06T04:10:31.198Z,97.9
2017-11-06T04:11:31.996Z,101.9
2017-11-06T04:12:32.734Z,98.9
2017-11-06T04:13:33.508Z,100.9
2017-11-06T04:14:34.231Z,91.8
2017-11-06T04:15:34.953Z,95.3
2017-11-06T04:16:35.681Z,95.9
2017-11-06T04:17:36.407Z,97.5
2017-11-06T04:18:37.202Z,101.2
2017-11-06T04:19:37.916Z,102.2
2017-11-06T04:20:38.642Z,98.8
2017-11-06T04:21:39.435Z,90.6
2017-11-06T04:22:40.470Z,99.3
2017-11-06T04:23:41.188Z,103.8
2017-11-06T04:24:41.962Z,96.3
2017-11-06T04:25:42.756Z,101.4
2017-11-06T04:26:43.490Z,97.1
2017-11-06T04:27:44.410Z,100.2
2017-11-06T04:28:45.191Z,99.3
2017-11-06T04:29:45.928Z,110.5
2017-11-06T04:30:46.716Z,104.2
2017-11-06T04:31:47.511Z,100.8
2017-11-06T04:32:48.341Z,112.7
2017-11-06T04:33:49.056Z,104.0
2017-11-06T04:34:49.775Z,108.6
2017-11-06T04:35:50.561Z,106.0
2017-11-06T04:36:51.271Z,104.2
2017-11-06T04:37:52.294Z,103.7
2017-11-06T04:38:53.074Z,96.7
2017-11-06T04:39:53.792Z,104.1
2017-11-06T04:40:54.581Z,95.6
2017-11-06T04:41:55.310Z,96.4
2017-11-06T04:42:56.033Z,98.0
2017-11-06T04:43:56.822Z,107.6
2017-11-06T04:44:57.614Z,103.7
2017-11-06T04:45:58.410Z,97.6
2017-11-06T04:46:59.128Z,101.3
2017-11-06T04:48:00.147Z,105.0
2017-11-06T04:49:00.933Z,98.1
2017-11-06T04:50:01.699Z,101.2
2017-11-06T04:51:02.417Z,103.2
2017-11-06T04:52:03.169Z,104.0
2017-11-06T04:53:04.009Z,110.5
2017-11-06T04:54:04.801Z,99.0
2017-11-06T04:55:05.522Z,99.7
2017-11-06T04:56:06.293Z,104.3
2017-11-06T04:57:07.098Z,102.0
2017-11-06T04:58:08.290Z,98.0
2017-11-06T04:59:09.008Z,96.1
2017-11-06T05:00:09.729Z,94.9
2017-11-06T05:01:10.525Z,103.7
2017-11-06T05:02:11.251Z,101.1
2017-11-06T05:03:12.014Z,104.3
2017-11-06T05:04:12.741Z,107.1
2017-11-06T05:05:13.462Z,105.9
2017-11-06T05:06:14.256Z,109.9
2017-11-06T05:07:15.002Z,107.3
2017-11-06T05:08:15.901Z,107.9
2017-11-06T05:09:16.679Z,101.7
2017-11-06T05:10:17.408Z,106.1
2017-11-06T05:11:18.136Z,110.8
2017-11-06T05:12:18.847Z,107.9
2017-11-06T05:13:19.616Z,109.1
2017-11-06T05:14:20.350Z,108.4
2017-11-06T05:15:21.068Z,120.8
2017-11-06T05:16:21.844Z,119.0
2017-11-06T05:17:22.649Z,124.0
2017-11-06T05:18:23.421Z,105.7
2017-11-06T05:19:24.139Z,114.6
2017-11-06T05:20:24.921Z,104.7
2017-11-06T05:21:25.648Z,101.9
2017-11-06T05:22:26.418Z,106.8
2017-11-06T05:23:27.187Z,105.6
2017-11-06T05:24:27.962Z,116.6
2017-11-06T05:25:28.751Z,113.9
2017-11-06T05:26:29.473Z,115.0
2017-11-06T05:27:30.271Z,117.2
2017-11-06T05:28:31.080Z,114.1
2017-11-06T05:29:31.820Z,118.7
2017-11-06T05:30:32.542Z,112.0
2017-11-06T05:31:33.318Z,115.3
2017-11-06T05:32:34.042Z,123.6
2017-11-06T05:33:34.915Z,135.6
2017-11-06T05:34:35.642Z,120.8
2017-11-06T05:35:36.357Z,116.0
2017-11-06T05:36:37.081Z,120.9
2017-11-06T05:37:37.803Z,127.9
2017-11-06T05:38:38.536Z,127.5
2017-11-06T05:39:39.257Z,123.5
2017-11-06T05:40:39.972Z,122.1
2017-11-06T05:41:40.801Z,116.0
2017-11-06T05:42:41.533Z,119.2
2017-11-06T05:43:42.339Z,125.2
2017-11-06T05:44:43.131Z,118.0
2017-11-06T05:45:43.865Z,120.9
2017-11-06T05:46:44.784Z,122.5
2017-11-06T05:47:45.503Z,120.8
2017-11-06T05:48:46.295Z,128.6
2017-11-06T05:49:47.032Z,119.9
2017-11-06T05:50:47.747Z,126.1
2017-11-06T05:51:48.532Z,121.3
2017-11-06T05:52:49.315Z,126.6
2017-11-06T05:53:50.100Z,122.3
2017-11-06T05:54:50.882Z,129.3
2017-11-06T05:55:51.657Z,119.2
2017-11-06T05:56:52.440Z,116.9
2017-11-06T05:57:53.160Z,129.1
2017-11-06T05:58:53.908Z,121.8
2017-11-06T05:59:54.573Z,121.9
2017-11-06T06:00:55.361Z,118.5
2017-11-06T06:01:56.128Z,122.6
2017-11-06T06:02:56.929Z,120.4
2017-11-06T06:03:57.713Z,127.7
2017-11-06T06:04:58.433Z,116.8
2017-11-06T06:05:59.221Z,130.5
2017-11-06T06:07:00.050Z,126.1
2017-11-06T06:08:00.767Z,121.1
2017-11-06T06:09:01.491Z,127.6
2017-11-06T06:10:02.278Z,123.9
2017-11-06T06:11:03.008Z,127.0
2017-11-06T06:12:03.769Z,137.2
2017-11-06T06:13:04.501Z,126.4
2017-11-06T06:14:05.230Z,131.2
2017-11-06T06:15:05.952Z,134.7
2017-11-06T06:16:06.767Z,126.5
2017-11-06T06:17:07.450Z,132.8
2017-11-06T06:18:08.182Z,135.7
2017-11-06T06:19:09.001Z,136.0
2017-11-06T06:20:09.726Z,129.7
2017-11-06T06:21:10.514Z,131.8
2017-11-06T06:22:11.252Z,132.0
2017-11-06T06:23:11.988Z,127.8
2017-11-06T06:24:12.782Z,132.3
2017-11-06T06:25:13.600Z,137.4
2017-11-06T06:26:15.023Z,130.2
2017-11-06T06:27:15.750Z,138.5
2017-11-06T06:28:16.478Z,136.4
2017-11-06T06:29:17.283Z,141.2
2017-11-06T06:30:18.102Z,134.7
2017-11-06T06:31:18.934Z,143.1
2017-11-06T06:32:19.727Z,137.5
2017-11-06T06:33:20.460Z,132.0
2017-11-06T06:34:21.193Z,133.3
2017-11-06T06:35:21.937Z,141.0
2017-11-06T06:36:23.066Z,133.6
2017-11-06T06:37:23.798Z,145.2
2017-11-06T06:38:24.527Z,132.0
2017-11-06T06:39:25.247Z,145.1
2017-11-06T06:40:26.036Z,139.5
2017-11-06T06:41:26.871Z,132.0
2017-11-06T06:42:27.661Z,133.2
2017-11-06T06:43:28.386Z,140.2
2017-11-06T06:44:29.109Z,132.1
2017-11-06T06:45:29.837Z,138.6
2017-11-06T06:46:30.621Z,141.7
2017-11-06T06:47:31.408Z,148.7
2017-11-06T06:48:32.201Z,139.7
2017-11-06T06:49:32.942Z,141.5
2017-11-06T06:50:33.671Z,134.3
2017-11-06T06:51:34.452Z,137.9
2017-11-06T06:52:35.260Z,143.2
2017-11-06T06:53:35.988Z,136.9
2017-11-06T06:54:36.716Z,141.5
2017-11-06T06:55:37.452Z,134.9
2017-11-06T06:56:38.373Z,144.2
2017-11-06T06:57:39.172Z,135.3
2017-11-06T06:58:39.942Z,136.7
2017-11-06T06:59:40.670Z,140.4
2017-11-06T07:00:41.405Z,136.1
2017-11-06T07:01:42.213Z,142.4
2017-11-06T07:02:42.948Z,144.1
2017-11-06T07:03:43.725Z,151.0
2017-11-06T07:04:44.421Z,136.8
2017-11-06T07:05:45.140Z,149.0
2017-11-06T07:06:45.974Z,139.8
2017-11-06T07:07:46.713Z,137.9
2017-11-06T07:08:47.502Z,127.3
2017-11-06T07:09:48.235Z,142.2
2017-11-06T07:10:48.972Z,137.6
2017-11-06T07:11:49.697Z,139.9
2017-11-06T07:12:50.427Z,139.8
2017-11-06T07:13:51.192Z,154.9
2017-11-06T07:14:51.952Z,139.5
2017-11-06T07:15:52.674Z,139.7
2017-11-06T07:16:53.517Z,141.1
2017-11-06T07:17:54.321Z,146.7
2017-11-06T07:18:55.089Z,146.5
2017-11-06T07:19:55.808Z,138.3
2017-11-06T07:20:56.529Z,139.4
2017-11-06T07:21:57.261Z,143.5
2017-11-06T07:22:57.989Z,143.3
2017-11-06T07:23:58.724Z,136.8
2017-11-06T07:24:59.448Z,172.3
2017-11-06T07:26:00.169Z,140.3
2017-11-06T07:27:01.258Z,140.5
2017-11-06T07:28:02.006Z,143.2
2017-11-06T07:29:02.738Z,144.8
2017-11-06T07:30:03.469Z,132.4
2017-11-06T07:31:04.261Z,130.4
2017-11-06T07:32:05.041Z,142.7
2017-11-06T07:33:05.757Z,142.7
2017-11-06T07:34:06.486Z,140.6
2017-11-06T07:35:07.219Z,137.5
2017-11-06T07:36:08.038Z,139.6
2017-11-06T07:37:08.744Z,140.2
2017-11-06T07:38:09.478Z,137.1
2017-11-06T07:39:10.282Z,136.7
2017-11-06T07:40:11.122Z,134.8
2017-11-06T07:41:11.855Z,132.3
2017-11-06T07:42:12.593Z,135.2
2017-11-06T07:43:13.321Z,128.8
2017-11-06T07:44:14.055Z,124.4
2017-11-06T07:45:14.778Z,129.1
2017-11-06T07:46:15.913Z,133.1
2017-11-06T07:47:16.642Z,128.4
2017-11-06T07:48:17.368Z,132.9
2017-11-06T07:49:18.109Z,140.2
2017-11-06T07:50:18.902Z,130.1
2017-11-06T07:51:19.730Z,127.7
2017-11-06T07:52:20.512Z,135.2
2017-11-06T07:53:21.240Z,130.7
2017-11-06T07:54:22.033Z,127.4
2017-11-06T07:55:22.796Z,128.6
2017-11-06T07:56:23.580Z,126.6
2017-11-06T07:57:24.367Z,129.1
2017-11-06T07:58:25.107Z,127.1
2017-11-06T07:59:25.892Z,126.4
2017-11-06T08:00:26.628Z,127.5
2017-11-06T08:01:27.498Z,121.0
2017-11-06T08:02:28.267Z,125.1
2017-11-06T08:03:29.057Z,125.9
2017-11-06T08:04:29.793Z,118.4
2017-11-06T08:05:30.522Z,122.4
2017-11-06T08:06:31.296Z,127.9
2017-11-06T08:07:32.028Z,128.4
2017-11-06T08:08:32.755Z,121.7
2017-11-06T08:09:33.591Z,122.0
2017-11-06T08:10:34.371Z,123.7
2017-11-06T08:11:35.167Z,121.0
2017-11-06T08:12:35.907Z,125.6
2017-11-06T08:13:36.742Z,122.2
2017-11-06T08:14:37.538Z,118.7
2017-11-06T08:15:38.289Z,123.4
2017-11-06T08:16:39.060Z,122.0
2017-11-06T08:17:39.862Z,123.9
2017-11-06T08:18:40.704Z,117.6
2017-11-06T08:19:41.423Z,117.8
2017-11-06T08:20:42.174Z,127.3
2017-11-06T08:21:42.943Z,124.1
2017-11-06T08:22:43.676Z,123.2
2017-11-06T08:23:44.583Z,127.4
2017-11-06T08:24:45.360Z,119.1
2017-11-06T08:25:46.072Z,120.3
2017-11-06T08:26:46.877Z,118.4
2017-11-06T08:27:48.375Z,118.0
2017-11-06T08:28:49.335Z,128.3
2017-11-06T08:29:50.072Z,124.3
2017-11-06T08:30:50.859Z,118.4
2017-11-06T08:31:51.589Z,123.1
2017-11-06T08:32:52.309Z,117.8
2017-11-06T08:33:53.043Z,119.3
2017-11-06T08:34:53.768Z,116.8
2017-11-06T08:35:54.490Z,116.7
2017-11-06T08:36:55.224Z,117.0
2017-11-06T08:37:55.962Z,112.1
2017-11-06T08:38:56.798Z,110.7
2017-11-06T08:39:57.612Z,107.4
2017-11-06T08:40:58.366Z,109.5
2017-11-06T08:41:59.101Z,110.7
2017-11-06T08:42:59.897Z,104.5
2017-11-06T08:44:00.726Z,105.8
2017-11-06T08:45:01.449Z,106.2
2017-11-06T08:46:02.184Z,105.5
2017-11-06T08:47:02.976Z,105.9
2017-11-06T08:48:03.750Z,105.9
2017-11-06T08:49:04.585Z,101.4
2017-11-06T08:50:05.415Z,108.6
2017-11-06T08:51:06.194Z,102.1
2017-11-06T08:52:06.920Z,109.1
2017-11-06T08:53:07.721Z,107.6
2017-11-06T08:54:08.563Z,109.3
2017-11-06T08:55:09.289Z,106.7
2017-11-06T08:56:10.013Z,108.9
2017-11-06T08:57:10.756Z,109.7
2017-11-06T08:58:11.545Z,111.4
2017-11-06T08:59:12.403Z,105.5
2017-11-06T09:00:13.137Z,106.9
2017-11-06T09:01:13.866Z,106.2
2017-11-06T09:02:14.636Z,103.2
2017-11-06T09:03:15.361Z,98.8
2017-11-06T09:04:16.203Z,99.4
2017-11-06T09:05:16.992Z,103.4
2017-11-06T09:06:17.724Z,102.3
2017-11-06T09:07:18.524Z,100.8
2017-11-06T09:08:19.320Z,95.3
2017-11-06T09:09:20.160Z,91.6
2017-11-06T09:10:20.897Z,84.7
2017-11-06T09:11:21.634Z,80.6
2017-11-06T09:12:22.433Z,77.0
2017-11-06T09:13:23.171Z,76.3
2017-11-06T09:14:23.953Z,76.3
2017-11-06T09:15:24.691Z,77.3
2017-11-06T09:16:25.484Z,83.1
2017-11-06T09:17:26.209Z,81.1
2017-11-06T09:18:26.962Z,79.0
2017-11-06T09:19:27.864Z,78.4
2017-11-06T09:20:28.580Z,77.1
2017-11-06T09:21:29.318Z,78.1
2017-11-06T09:22:30.107Z,83.0
2017-11-06T09:23:30.839Z,82.8
2017-11-06T09:24:31.676Z,81.0
2017-11-06T09:25:32.414Z,84.7
2017-11-06T09:26:33.140Z,81.7
2017-11-06T09:27:33.939Z,77.4
2017-11-06T09:28:34.673Z,76.5
2017-11-06T09:29:35.509Z,79.9
2017-11-06T09:30:36.244Z,80.4
2017-11-06T09:31:37.053Z,76.3
2017-11-06T09:32:37.784Z,75.9
2017-11-06T09:33:38.561Z,78.8
2017-11-06T09:34:39.596Z,73.5
2017-11-06T09:35:40.392Z,76.6
2017-11-06T09:36:41.139Z,72.8
2017-11-06T09:37:41.945Z,74.8
2017-11-06T09:38:42.757Z,74.1
2017-11-06T09:39:43.553Z,69.1
2017-11-06T09:40:44.279Z,67.7
2017-11-06T09:41:45.001Z,64.8
2017-11-06T09:42:45.808Z,63.7
2017-11-06T09:43:46.543Z,64.2
2017-11-06T09:44:47.279Z,62.4
2017-11-06T09:45:48.027Z,59.7
2017-11-06T09:46:48.800Z,61.1
2017-11-06T09:47:49.534Z,57.2
2017-11-06T09:48:50.333Z,59.4
2017-11-06T09:49:51.073Z,59.2
2017-11-06T09:50:51.848Z,59.9
2017-11-06T09:51:52.633Z,59.3
2017-11-06T09:52:53.390Z,61.2
2017-11-06T09:53:54.259Z,60.0
2017-11-06T09:54:54.977Z,56.4
2017-11-06T09:55:55.700Z,55.7
2017-11-06T09:56:56.436Z,54.6
2017-11-06T09:57:57.162Z,51.6
2017-11-06T09:58:58.232Z,51.5
2017-11-06T09:59:59.009Z,47.4
2017-11-06T10:00:59.729Z,49.2
2017-11-06T10:02:00.533Z,46.8
2017-11-06T10:03:01.318Z,47.6
2017-11-06T10:04:02.051Z,45.5
2017-11-06T10:05:02.784Z,45.1
2017-11-06T10:06:03.563Z,45.4
2017-11-06T10:07:04.366Z,43.3
2017-11-06T10:08:05.204Z,43.3
2017-11-06T10:09:05.938Z,42.2
2017-11-06T10:10:06.673Z,43.2
2017-11-06T10:11:07.478Z,41.6
2017-11-06T10:12:08.213Z,43.0
2017-11-06T10:13:08.992Z,43.9
2017-11-06T10:14:09.723Z,43.7
2017-11-06T10:15:11.508Z,45.2
2017-11-06T10:16:12.550Z,47.1
2017-11-06T10:17:13.303Z,43.0
2017-11-06T10:18:14.195Z,43.6
2017-11-06T10:19:14.940Z,42.7
2017-11-06T10:20:15.695Z,41.7
2017-11-06T10:21:16.456Z,41.7
2017-11-06T10:22:17.192Z,40.3
2017-11-06T10:23:17.996Z,39.4
2017-11-06T10:24:18.800Z,38.2
2017-11-06T10:25:19.595Z,36.7
2017-11-06T10:26:20.390Z,34.7
2017-11-06T10:27:21.116Z,35.2
2017-11-06T10:28:21.900Z,34.0
2017-11-06T10:29:22.627Z,33.7
2017-11-06T10:30:23.432Z,36.0
2017-11-06T10:31:24.161Z,35.1
2017-11-06T10:32:24.900Z,34.7
2017-11-06T10:33:25.776Z,33.6
2017-11-06T10:34:26.561Z,33.2
2017-11-06T10:35:27.277Z,32.1
2017-11-06T10:36:28.009Z,31.0
2017-11-06T10:37:28.738Z,32.2
2017-11-06T10:38:29.547Z,32.3
2017-11-06T10:39:30.333Z,31.5
2017-11-06T10:40:31.148Z,32.6
2017-11-06T10:41:31.950Z,30.1
2017-11-06T10:42:32.747Z,29.3
2017-11-06T10:43:33.576Z,28.5
2017-11-06T10:44:34.347Z,27.2
2017-11-06T10:45:35.083Z,29.0
2017-11-06T10:46:35.885Z,28.2
2017-11-06T10:47:36.691Z,27.4
2017-11-06T10:48:37.817Z,25.3
2017-11-06T10:49:38.538Z,23.3
2017-11-06T10:50:39.274Z,24.2
2017-11-06T10:51:40.057Z,23.2
2017-11-06T10:52:40.794Z,22.7
2017-11-06T10:53:41.601Z,22.2
2017-11-06T10:54:42.336Z,22.2
2017-11-06T10:55:43.058Z,21.1
2017-11-06T10:56:43.798Z,18.8
2017-11-06T10:57:44.592Z,19.2
2017-11-06T10:58:45.350Z,18.7
2017-11-06T10:59:46.138Z,18.9
2017-11-06T11:00:46.880Z,20.3
2017-11-06T11:01:47.656Z,21.3
2017-11-06T11:02:48.403Z,20.5
2017-11-06T11:03:49.182Z,19.2
2017-11-06T11:04:49.907Z,19.8
2017-11-06T11:05:50.682Z,21.4
2017-11-06T11:06:51.537Z,22.1
2017-11-06T11:07:52.237Z,21.7
2017-11-06T11:08:52.968Z,20.6
2017-11-06T11:09:53.721Z,20.9
2017-11-06T11:10:54.462Z,20.8
2017-11-06T11:11:55.287Z,20.4
2017-11-06T11:12:56.026Z,19.3
2017-11-06T11:13:56.765Z,19.8
2017-11-06T11:14:57.488Z,19.1
2017-11-06T11:15:58.236Z,19.0
2017-11-06T11:16:59.098Z,19.8
2017-11-06T11:17:59.842Z,19.9
2017-11-06T11:19:00.644Z,20.0
2017-11-06T11:20:01.429Z,19.1
2017-11-06T11:21:02.208Z,18.3
2017-11-06T11:22:03.052Z,20.1
2017-11-06T11:23:03.786Z,19.9
2017-11-06T11:24:04.507Z,20.9
2017-11-06T11:25:05.241Z,18.4
2017-11-06T11:26:05.995Z,20.1
2017-11-06T11:27:06.877Z,18.9
2017-11-06T11:28:07.681Z,18.8
2017-11-06T11:29:08.417Z,19.0
2017-11-06T11:30:09.182Z,18.3
2017-11-06T11:31:09.912Z,18.6
2017-11-06T11:32:10.641Z,18.7
2017-11-06T11:33:11.442Z,19.1
2017-11-06T11:34:12.182Z,18.0
2017-11-06T11:35:13.317Z,19.6
2017-11-06T11:36:14.095Z,20.2
2017-11-06T11:37:15.171Z,20.4
2017-11-06T11:38:15.867Z,19.6
2017-11-06T11:39:16.609Z,20.9
2017-11-06T11:40:17.341Z,20.9
2017-11-06T11:41:18.065Z,19.3
2017-11-06T11:42:18.815Z,20.0
2017-11-06T11:43:19.596Z,20.1
2017-11-06T11:44:20.335Z,21.3
2017-11-06T11:45:21.245Z,19.4
2017-11-06T11:46:22.024Z,20.5
2017-11-06T11:47:22.765Z,20.0
2017-11-06T11:48:23.561Z,19.8
2017-11-06T11:49:24.284Z,20.1
2017-11-06T11:50:25.418Z,20.7
2017-11-06T11:51:26.225Z,20.4
2017-11-06T11:52:27.003Z,20.4
2017-11-06T11:53:28.708Z,20.4
2017-11-06T11:54:29.756Z,20.2
2017-11-06T11:55:30.832Z,21.0
2017-11-06T11:56:31.611Z,19.8
2017-11-06T11:57:32.340Z,18.7
2017-11-06T11:58:33.076Z,17.6
2017-11-06T11:59:33.813Z,17.7
2017-11-06T12:00:34.670Z,17.9
2017-11-06T12:01:35.459Z,18.7
2017-11-06T12:02:36.178Z,19.0
2017-11-06T12:03:36.905Z,18.6
2017-11-06T12:04:37.706Z,18.5
2017-11-06T12:05:38.552Z,17.9
2017-11-06T12:06:39.383Z,19.6
2017-11-06T12:07:40.153Z,18.4
2017-11-06T12:08:40.928Z,19.6
2017-11-06T12:09:42.602Z,19.4
2017-11-06T12:10:43.707Z,19.0
2017-11-06T12:11:44.452Z,19.2
2017-11-06T12:12:45.199Z,20.1
2017-11-06T12:13:47.137Z,19.0
2017-11-06T12:14:48.100Z,17.0
2017-11-06T12:15:48.936Z,16.7
2017-11-06T12:16:49.750Z,17.0
2017-11-06T12:17:50.554Z,17.8
2017-11-06T12:18:51.323Z,17.0
2017-11-06T12:19:52.101Z,16.3
2017-11-06T12:20:52.926Z,15.7
2017-11-06T12:21:53.668Z,17.0
2017-11-06T12:22:54.390Z,15.2
2017-11-06T12:23:55.121Z,15.8
2017-11-06T12:24:55.898Z,15.9
2017-11-06T12:25:56.630Z,16.9
2017-11-06T12:26:58.337Z,16.3
2017-11-06T12:27:59.419Z,15.6
2017-11-06T12:29:00.435Z,16.1
2017-11-06T12:30:01.320Z,16.4
2017-11-06T12:31:02.118Z,15.3
2017-11-06T12:32:02.972Z,15.1
2017-11-06T12:33:05.465Z,13.7
2017-11-06T12:34:06.469Z,15.3
2017-11-06T12:35:07.218Z,14.8
2017-11-06T12:36:07.960Z,14.4
2017-11-06T12:37:08.777Z,13.5
2017-11-06T12:38:09.634Z,14.5
2017-11-06T12:39:10.373Z,13.7
2017-11-06T12:40:11.214Z,13.8
2017-11-06T12:41:11.986Z,15.2
2017-11-06T12:42:12.734Z,14.5
2017-11-06T12:43:13.564Z,15.6
2017-11-06T12:44:14.286Z,14.8
2017-11-06T12:45:15.024Z,15.2
2017-11-06T12:46:15.795Z,15.2
2017-11-06T12:47:16.517Z,14.8
2017-11-06T12:48:17.614Z,14.6
2017-11-06T12:49:18.427Z,15.3
2017-11-06T12:50:19.196Z,15.3
2017-11-06T12:51:19.936Z,15.1
2017-11-06T12:52:20.684Z,14.3
2017-11-06T12:53:21.575Z,15.1
2017-11-06T12:54:22.308Z,15.5
2017-11-06T12:55:23.099Z,14.8
2017-11-06T12:56:23.825Z,15.6
2017-11-06T12:57:24.559Z,15.7
2017-11-06T12:58:25.420Z,15.3
2017-11-06T12:59:26.152Z,14.9
2017-11-06T13:00:26.895Z,15.2
2017-11-06T13:01:27.636Z,15.8
2017-11-06T13:02:28.370Z,16.4
2017-11-06T13:03:29.200Z,16.0
2017-11-06T13:04:29.958Z,17.6
2017-11-06T13:05:30.756Z,15.7
2017-11-06T13:06:31.505Z,16.8
2017-11-06T13:07:32.237Z,16.6
2017-11-06T13:08:33.016Z,14.9
2017-11-06T13:09:33.754Z,14.6
2017-11-06T13:10:34.557Z,15.4
2017-11-06T13:11:35.300Z,16.2
2017-11-06T13:12:36.106Z,15.7
2017-11-06T13:13:36.825Z,15.7
2017-11-06T13:14:37.638Z,14.7
2017-11-06T13:15:38.420Z,15.9
2017-11-06T13:16:39.231Z,15.8
2017-11-06T13:17:40.051Z,15.3
2017-11-06T13:18:40.876Z,14.9
2017-11-06T13:19:41.611Z,14.3